createdAt,value
2023-04-28T00:02:04.825Z,10.48
2023-04-28T00:04:31.582Z,10.50
2023-04-28T00:06:58.150Z,10.52
2023-04-28T00:09:24.650Z,10.52
2023-04-28T00:11:51.015Z,10.49
2023-04-28T00:14:17.575Z,10.47
2023-04-28T00:16:44.366Z,10.41
2023-04-28T00:19:10.777Z,10.41
2023-04-28T00:21:37.196Z,10.41
2023-04-28T00:24:03.759Z,10.43
2023-04-28T00:26:30.292Z,10.41
2023-04-28T00:28:56.640Z,10.42
2023-04-28T00:31:23.031Z,10.34
2023-04-28T00:33:49.477Z,10.37
2023-04-28T00:36:15.885Z,10.37
2023-04-28T00:38:42.238Z,10.34
2023-04-28T00:41:11.638Z,10.35
2023-04-28T00:43:45.573Z,10.37
2023-04-28T00:46:18.133Z,10.35
2023-04-28T00:48:44.608Z,10.35
2023-04-28T00:51:11.074Z,10.33
2023-04-28T00:53:38.216Z,10.32
2023-04-28T00:56:05.058Z,10.30
2023-04-28T00:58:32.553Z,10.31
2023-04-28T01:01:03.893Z,10.32
2023-04-28T01:03:31.037Z,10.31
2023-04-28T01:05:58.654Z,10.32
2023-04-28T01:08:29.756Z,10.32
2023-04-28T01:10:56.200Z,10.29
2023-04-28T01:13:22.670Z,10.25
2023-04-28T01:15:49.138Z,10.23
2023-04-28T01:18:16.105Z,10.25
2023-04-28T01:20:42.895Z,10.22
2023-04-28T01:23:13.378Z,10.19
2023-04-28T01:25:40.128Z,10.20
2023-04-28T01:28:06.992Z,10.17
2023-04-28T01:30:33.570Z,10.20
2023-04-28T01:33:00.138Z,10.20
2023-04-28T01:35:26.656Z,10.16
2023-04-28T01:37:53.051Z,10.15
2023-04-28T01:40:19.589Z,10.14
2023-04-28T01:42:45.989Z,10.12
2023-04-28T01:45:12.540Z,10.12
2023-04-28T01:47:39.036Z,10.10
2023-04-28T01:50:06.138Z,10.08
2023-04-28T01:52:32.546Z,10.07
2023-04-28T01:54:58.969Z,10.07
2023-04-28T01:57:26.022Z,10.05
2023-04-28T01:59:53.013Z,10.05
2023-04-28T02:02:19.500Z,10.06
2023-04-28T02:04:46.207Z,10.04
2023-04-28T02:07:12.697Z,10.02
2023-04-28T02:09:39.106Z,10.04
2023-04-28T02:12:05.618Z,10.03
2023-04-28T02:14:34.898Z,10.06
2023-04-28T02:17:03.192Z,9.99
2023-04-28T02:19:29.565Z,9.93
2023-04-28T02:21:55.950Z,9.95
2023-04-28T02:24:22.531Z,9.95
2023-04-28T02:26:49.144Z,9.97
2023-04-28T02:29:15.612Z,9.95
2023-04-28T02:31:42.078Z,9.94
2023-04-28T02:34:08.600Z,9.95
2023-04-28T02:36:35.010Z,9.95
2023-04-28T02:39:01.404Z,9.90
2023-04-28T02:41:27.866Z,9.90
2023-04-28T02:43:54.330Z,9.93
2023-04-28T02:46:20.726Z,9.93
2023-04-28T02:48:47.140Z,9.86
2023-04-28T02:51:14.128Z,9.87
2023-04-28T02:53:40.768Z,9.87
2023-04-28T02:56:07.285Z,9.86
2023-04-28T02:58:33.659Z,9.84
2023-04-28T03:01:00.197Z,9.79
2023-04-28T03:03:26.917Z,9.83
2023-04-28T03:05:53.473Z,9.86
2023-04-28T03:08:20.918Z,9.82
2023-04-28T03:10:47.311Z,9.84
2023-04-28T03:13:13.654Z,9.81
2023-04-28T03:15:40.099Z,9.78
2023-04-28T03:18:06.580Z,9.82
2023-04-28T03:20:33.073Z,9.82
2023-04-28T03:22:59.457Z,9.83
2023-04-28T03:25:26.021Z,9.84
2023-04-28T03:27:52.419Z,9.82
2023-04-28T03:30:18.887Z,9.85
2023-04-28T03:32:45.412Z,9.79
2023-04-28T03:35:11.847Z,9.70
2023-04-28T03:37:38.730Z,9.69
2023-04-28T03:40:05.795Z,9.73
2023-04-28T03:42:32.147Z,9.70
2023-04-28T03:44:58.524Z,9.71
2023-04-28T03:47:25.027Z,9.70
2023-04-28T03:49:52.175Z,9.71
2023-04-28T03:52:18.582Z,9.75
2023-04-28T03:54:44.959Z,9.72
2023-04-28T03:57:11.444Z,9.73
2023-04-28T03:59:38.259Z,9.76
2023-04-28T04:02:04.738Z,9.73
2023-04-28T04:04:31.466Z,9.74
2023-04-28T04:06:58.833Z,9.69
2023-04-28T04:09:25.517Z,9.73
2023-04-28T04:11:52.005Z,9.75
2023-04-28T04:14:19.013Z,9.74
2023-04-28T04:16:47.715Z,9.76
2023-04-28T04:19:14.142Z,9.74
2023-04-28T04:21:41.019Z,9.74
2023-04-28T04:24:07.580Z,9.72
2023-04-28T04:26:33.965Z,9.75
2023-04-28T04:29:00.440Z,9.75
2023-04-28T04:31:26.838Z,9.76
2023-04-28T04:33:53.346Z,9.74
2023-04-28T04:36:19.865Z,9.77
2023-04-28T04:38:46.352Z,9.80
2023-04-28T04:41:12.729Z,9.82
2023-04-28T04:43:39.167Z,9.81
2023-04-28T04:46:05.731Z,9.84
2023-04-28T04:48:32.130Z,9.81
2023-04-28T04:50:58.503Z,9.83
2023-04-28T04:53:24.872Z,9.86
2023-04-28T04:55:51.370Z,9.88
2023-04-28T04:58:17.901Z,9.92
2023-04-28T05:00:44.392Z,9.95
2023-04-28T05:03:11.741Z,9.99
2023-04-28T05:05:38.289Z,10.01
2023-04-28T05:08:05.869Z,10.02
2023-04-28T05:10:32.756Z,10.03
2023-04-28T05:12:59.117Z,9.99
2023-04-28T05:15:25.763Z,9.99
2023-04-28T05:17:52.189Z,9.96
2023-04-28T05:20:18.699Z,10.02
2023-04-28T05:22:45.052Z,10.00
2023-04-28T05:25:11.463Z,10.02
2023-04-28T05:27:39.514Z,10.02
2023-04-28T05:30:07.778Z,10.03
2023-04-28T05:32:35.291Z,10.05
2023-04-28T05:35:02.390Z,10.04
2023-04-28T05:37:29.303Z,10.02
2023-04-28T05:39:55.882Z,10.02
2023-04-28T05:42:22.326Z,10.05
2023-04-28T05:44:48.660Z,10.02
2023-04-28T05:47:14.951Z,9.99
2023-04-28T05:49:41.361Z,9.94
2023-04-28T05:52:07.705Z,9.91
2023-04-28T05:54:34.587Z,9.88
2023-04-28T05:57:01.928Z,9.81
2023-04-28T05:59:30.561Z,9.85
2023-04-28T06:01:56.995Z,9.90
2023-04-28T06:04:23.840Z,9.93
2023-04-28T06:06:50.726Z,9.88
2023-04-28T06:09:17.225Z,9.89
2023-04-28T06:11:43.792Z,9.93
2023-04-28T06:14:10.209Z,9.99
2023-04-28T06:16:36.655Z,10.00
2023-04-28T06:19:03.609Z,10.01
2023-04-28T06:21:29.960Z,10.00
2023-04-28T06:23:56.333Z,10.08
2023-04-28T06:26:22.788Z,10.12
2023-04-28T06:28:49.194Z,10.20
2023-04-28T06:31:15.593Z,10.24
2023-04-28T06:33:42.088Z,10.28
2023-04-28T06:36:08.724Z,10.30
2023-04-28T06:38:35.225Z,10.31
2023-04-28T06:41:01.622Z,10.34
2023-04-28T06:43:28.031Z,10.39
2023-04-28T06:45:54.578Z,10.47
2023-04-28T06:48:20.998Z,10.47
2023-04-28T06:50:47.343Z,10.48
2023-04-28T06:53:13.723Z,10.54
2023-04-28T06:55:40.122Z,10.50
2023-04-28T06:58:06.518Z,10.57
2023-04-28T07:00:33.091Z,10.67
2023-04-28T07:02:59.635Z,10.74
2023-04-28T07:05:26.418Z,10.77
2023-04-28T07:07:52.991Z,10.81
2023-04-28T07:10:19.700Z,10.85
2023-04-28T07:12:46.199Z,10.86
2023-04-28T07:15:12.929Z,10.92
2023-04-28T07:17:39.477Z,11.00
2023-04-28T07:20:06.867Z,11.02
2023-04-28T07:22:33.253Z,11.15
2023-04-28T07:24:59.626Z,11.25
2023-04-28T07:27:26.391Z,11.29
2023-04-28T07:29:52.800Z,11.41
2023-04-28T07:32:19.454Z,11.52
2023-04-28T07:34:46.298Z,11.57
2023-04-28T07:37:12.711Z,11.59
2023-04-28T07:39:40.505Z,11.59
2023-04-28T07:42:07.073Z,11.65
2023-04-28T07:44:33.928Z,11.74
2023-04-28T07:47:01.071Z,11.84
2023-04-28T07:49:31.348Z,11.95
2023-04-28T07:51:57.907Z,12.08
2023-04-28T07:54:25.013Z,12.15
2023-04-28T07:56:51.585Z,12.18
2023-04-28T07:59:17.927Z,12.26
2023-04-28T08:01:44.419Z,12.31
2023-04-28T08:04:11.796Z,12.31
2023-04-28T08:06:38.953Z,12.31
2023-04-28T08:09:06.317Z,12.29
2023-04-28T08:11:33.435Z,12.22
2023-04-28T08:14:02.746Z,12.20
2023-04-28T08:16:30.944Z,12.18
2023-04-28T08:18:58.104Z,12.14
2023-04-28T08:21:24.695Z,12.13
2023-04-28T08:23:51.201Z,12.10
2023-04-28T08:26:17.572Z,12.11
2023-04-28T08:28:44.250Z,12.10
2023-04-28T08:31:10.739Z,12.11
2023-04-28T08:33:37.240Z,12.02
2023-04-28T08:36:04.666Z,12.03
2023-04-28T08:38:31.107Z,12.08
2023-04-28T08:40:57.527Z,12.24
2023-04-28T08:43:25.362Z,12.47
2023-04-28T08:45:51.885Z,12.70
2023-04-28T08:48:20.788Z,12.94
2023-04-28T08:50:53.421Z,12.95
2023-04-28T08:53:27.003Z,12.94
2023-04-28T08:55:57.414Z,12.89
2023-04-28T08:58:25.782Z,12.92
2023-04-28T09:00:53.774Z,12.91
2023-04-28T09:03:20.884Z,12.89
2023-04-28T09:05:47.628Z,12.75
2023-04-28T09:08:14.180Z,12.80
2023-04-28T09:10:41.019Z,12.79
2023-04-28T09:13:07.557Z,12.66
2023-04-28T09:15:36.110Z,12.66
2023-04-28T09:18:06.914Z,12.67
2023-04-28T09:20:35.870Z,12.63
2023-04-28T09:23:20.969Z,12.59
2023-04-28T09:25:59.608Z,12.57
2023-04-28T09:28:26.274Z,12.59
2023-04-28T09:30:52.964Z,12.61
2023-04-28T09:33:19.628Z,12.67
2023-04-28T09:35:47.528Z,12.65
2023-04-28T09:38:14.796Z,12.66
2023-04-28T09:41:02.117Z,12.72
2023-04-28T09:43:33.598Z,12.80
2023-04-28T09:46:03.371Z,12.79
2023-04-28T09:48:34.891Z,12.77
2023-04-28T09:51:03.341Z,12.85
2023-04-28T09:53:30.828Z,12.88
2023-04-28T09:55:59.042Z,12.92
2023-04-28T09:58:27.593Z,12.90
2023-04-28T10:00:56.375Z,12.87
2023-04-28T10:03:25.639Z,12.89
2023-04-28T10:05:54.861Z,12.99
2023-04-28T10:08:22.619Z,13.01
2023-04-28T10:10:56.760Z,12.97
2023-04-28T10:13:24.598Z,12.98
2023-04-28T10:15:55.313Z,12.97
2023-04-28T10:18:25.161Z,12.98
2023-04-28T10:21:03.804Z,12.96
2023-04-28T10:23:51.800Z,12.97
2023-04-28T10:26:22.027Z,13.00
2023-04-28T10:28:50.645Z,12.94
2023-04-28T10:31:21.041Z,12.92
2023-04-28T10:33:48.628Z,12.99
2023-04-28T10:36:50.915Z,13.03
2023-04-28T10:39:17.434Z,13.05
2023-04-28T10:41:46.481Z,13.07
2023-04-28T10:44:28.221Z,13.09
2023-04-28T10:47:04.135Z,13.13
2023-04-28T10:49:58.759Z,13.24
2023-04-28T10:52:37.869Z,13.28
2023-04-28T10:55:30.576Z,13.35
2023-04-28T10:58:15.410Z,13.40
2023-04-28T11:00:43.422Z,13.44
2023-04-28T11:03:10.187Z,13.51
2023-04-28T11:05:36.811Z,13.52
2023-04-28T11:08:18.819Z,13.61
2023-04-28T11:11:10.046Z,13.52
2023-04-28T11:13:36.643Z,13.51
2023-04-28T11:16:04.457Z,13.49
2023-04-28T11:18:45.572Z,13.46
2023-04-28T11:21:12.036Z,13.34
2023-04-28T11:23:39.655Z,13.33
2023-04-28T11:26:06.370Z,13.27
2023-04-28T11:28:32.701Z,13.22
2023-04-28T11:31:20.568Z,13.28
2023-04-28T11:33:51.414Z,13.39
2023-04-28T11:36:30.320Z,13.46
2023-04-28T11:38:59.354Z,13.54
2023-04-28T11:41:26.491Z,13.57
2023-04-28T11:43:53.557Z,13.60
2023-04-28T11:46:22.097Z,13.56
2023-04-28T11:48:49.414Z,13.50
2023-04-28T11:51:36.400Z,13.50
2023-04-28T11:54:03.788Z,13.48
2023-04-28T11:56:30.484Z,13.49
2023-04-28T11:59:05.370Z,13.53
2023-04-28T12:01:33.072Z,13.50
2023-04-28T12:04:00.079Z,13.51
2023-04-28T12:06:26.744Z,13.49
2023-04-28T12:08:54.547Z,13.55
2023-04-28T12:11:22.538Z,13.69
2023-04-28T12:14:06.299Z,13.81
2023-04-28T12:16:43.886Z,13.75
2023-04-28T12:19:11.647Z,13.76
2023-04-28T12:21:39.855Z,13.70
2023-04-28T12:24:21.309Z,13.77
2023-04-28T12:26:48.911Z,13.83
2023-04-28T12:29:38.155Z,13.82
2023-04-28T12:32:06.712Z,13.85
2023-04-28T12:34:33.541Z,13.83
2023-04-28T12:37:05.579Z,13.76
2023-04-28T12:39:39.465Z,13.81
2023-04-28T12:42:06.595Z,13.80
2023-04-28T12:44:36.722Z,13.84
2023-04-28T12:47:07.583Z,13.88
2023-04-28T12:49:38.245Z,13.87
2023-04-28T12:52:05.752Z,13.97
2023-04-28T12:54:32.429Z,14.06
2023-04-28T12:56:58.931Z,14.07
2023-04-28T12:59:25.499Z,14.07
2023-04-28T13:01:51.965Z,13.99
2023-04-28T13:04:19.157Z,13.99
2023-04-28T13:06:46.538Z,14.14
2023-04-28T13:09:14.805Z,14.32
2023-04-28T13:11:41.889Z,14.46
2023-04-28T13:14:08.837Z,14.48
2023-04-28T13:16:35.862Z,14.41
2023-04-28T13:19:03.979Z,14.45
2023-04-28T13:21:30.340Z,14.36
2023-04-28T13:23:57.203Z,14.40
2023-04-28T13:26:26.829Z,14.47
2023-04-28T13:28:53.247Z,14.45
2023-04-28T13:31:20.048Z,14.42
2023-04-28T13:33:46.595Z,14.33
2023-04-28T13:36:13.399Z,14.29
2023-04-28T13:38:40.054Z,14.30
2023-04-28T13:41:06.760Z,14.30
2023-04-28T13:43:33.207Z,14.35
2023-04-28T13:45:59.758Z,14.46
2023-04-28T13:48:27.696Z,14.38
2023-04-28T13:50:54.522Z,14.28
2023-04-28T13:53:20.867Z,14.24
2023-04-28T13:55:50.102Z,14.24
2023-04-28T13:58:16.860Z,14.29
2023-04-28T14:00:43.474Z,14.25
2023-04-28T14:03:11.578Z,14.17
2023-04-28T14:05:48.274Z,14.12
2023-04-28T14:08:18.253Z,14.10
2023-04-28T14:10:46.892Z,14.00
2023-04-28T14:13:13.622Z,13.94
2023-04-28T14:15:51.099Z,13.84
2023-04-28T14:18:24.322Z,13.85
2023-04-28T14:20:50.899Z,13.85
2023-04-28T14:23:17.519Z,13.88
2023-04-28T14:25:44.058Z,13.86
2023-04-28T14:28:10.562Z,13.88
2023-04-28T14:30:37.012Z,13.88
2023-04-28T14:33:03.535Z,13.89
2023-04-28T14:35:31.697Z,13.83
2023-04-28T14:37:58.319Z,13.79
2023-04-28T14:40:25.642Z,13.75
2023-04-28T14:42:52.847Z,13.67
2023-04-28T14:45:19.591Z,13.65
2023-04-28T14:47:46.048Z,13.63
2023-04-28T14:50:13.955Z,13.59
2023-04-28T14:52:41.211Z,13.59
2023-04-28T14:55:08.297Z,13.56
2023-04-28T14:57:35.243Z,13.54
2023-04-28T15:00:03.863Z,13.54
2023-04-28T15:02:30.440Z,13.51
2023-04-28T15:04:57.280Z,13.49
2023-04-28T15:07:26.442Z,13.47
2023-04-28T15:09:52.830Z,13.49
2023-04-28T15:12:20.950Z,13.50
2023-04-28T15:14:47.779Z,13.52
2023-04-28T15:17:14.328Z,13.51
2023-04-28T15:19:40.693Z,13.51
2023-04-28T15:22:07.190Z,13.52
2023-04-28T15:24:33.577Z,13.52
2023-04-28T15:26:59.949Z,13.54
2023-04-28T15:29:26.269Z,13.52
2023-04-28T15:31:52.780Z,13.52
2023-04-28T15:34:19.311Z,13.50
2023-04-28T15:36:45.777Z,13.46
2023-04-28T15:39:12.459Z,13.47
2023-04-28T15:41:39.394Z,13.54
2023-04-28T15:44:05.987Z,13.56
2023-04-28T15:46:32.912Z,13.54
2023-04-28T15:48:59.876Z,13.51
2023-04-28T15:51:26.596Z,13.42
2023-04-28T15:53:55.224Z,13.43
2023-04-28T15:56:23.675Z,13.38
2023-04-28T15:58:50.823Z,13.39
2023-04-28T16:01:18.420Z,13.38
2023-04-28T16:03:47.328Z,13.37
2023-04-28T16:06:14.678Z,13.36
2023-04-28T16:08:41.077Z,13.36
2023-04-28T16:11:08.026Z,13.34
2023-04-28T16:13:36.962Z,13.33
2023-04-28T16:16:04.134Z,13.30
2023-04-28T16:18:30.794Z,13.35
2023-04-28T16:20:57.487Z,13.38
2023-04-28T16:23:23.948Z,13.41
2023-04-28T16:25:50.948Z,13.44
2023-04-28T16:28:17.517Z,13.42
2023-04-28T16:30:44.058Z,13.38
2023-04-28T16:33:10.574Z,13.34
2023-04-28T16:35:37.093Z,13.32
2023-04-28T16:38:03.879Z,13.29
2023-04-28T16:40:30.537Z,13.34
2023-04-28T16:42:57.400Z,13.34
2023-04-28T16:45:23.934Z,13.35
2023-04-28T16:47:50.566Z,13.36
2023-04-28T16:50:17.626Z,13.29
2023-04-28T16:52:44.070Z,13.29
2023-04-28T16:55:10.755Z,13.27
2023-04-28T16:57:37.498Z,13.25
2023-04-28T17:00:06.178Z,13.25
2023-04-28T17:02:33.329Z,13.24
2023-04-28T17:05:00.016Z,13.23
2023-04-28T17:07:26.743Z,13.15
2023-04-28T17:09:53.364Z,13.06
2023-04-28T17:12:20.915Z,13.05
2023-04-28T17:14:47.580Z,13.01
2023-04-28T17:17:14.005Z,12.96
2023-04-28T17:19:41.616Z,12.95
2023-04-28T17:22:08.294Z,12.93
2023-04-28T17:24:34.881Z,12.88
2023-04-28T17:27:01.312Z,12.87
2023-04-28T17:29:27.855Z,12.87
2023-04-28T17:31:54.490Z,12.86
2023-04-28T17:34:21.075Z,12.77
2023-04-28T17:36:47.541Z,12.67
2023-04-28T17:39:16.140Z,12.64
2023-04-28T17:41:43.168Z,12.54
2023-04-28T17:44:09.500Z,12.48
2023-04-28T17:46:36.530Z,12.40
2023-04-28T17:49:03.304Z,12.31
2023-04-28T17:51:29.823Z,12.24
2023-04-28T17:53:58.890Z,12.28
2023-04-28T17:56:25.349Z,12.33
2023-04-28T17:58:51.816Z,12.30
2023-04-28T18:01:18.537Z,12.29
2023-04-28T18:03:45.271Z,12.19
2023-04-28T18:06:13.719Z,12.16
2023-04-28T18:08:40.926Z,12.07
2023-04-28T18:11:09.043Z,12.04
2023-04-28T18:13:35.517Z,12.07
2023-04-28T18:16:04.510Z,12.03
2023-04-28T18:18:33.864Z,12.03
2023-04-28T18:21:02.220Z,11.99
2023-04-28T18:23:30.297Z,11.96
2023-04-28T18:25:56.754Z,11.97
2023-04-28T18:28:23.095Z,11.92
2023-04-28T18:30:50.123Z,11.90
2023-04-28T18:33:19.997Z,11.96
2023-04-28T18:35:47.802Z,11.97
2023-04-28T18:38:14.527Z,11.92
2023-04-28T18:40:41.084Z,11.81
2023-04-28T18:43:10.264Z,11.85
2023-04-28T18:45:40.692Z,11.83
2023-04-28T18:48:07.927Z,11.79
2023-04-28T18:50:34.602Z,11.76
2023-04-28T18:53:01.257Z,11.71
2023-04-28T18:55:27.883Z,11.70
2023-04-28T18:57:54.308Z,11.72
2023-04-28T19:00:21.518Z,11.75
2023-04-28T19:02:48.017Z,11.68
2023-04-28T19:05:14.523Z,11.60
2023-04-28T19:07:41.968Z,11.61
2023-04-28T19:10:08.806Z,11.58
2023-04-28T19:12:35.270Z,11.55
2023-04-28T19:15:02.088Z,11.56
2023-04-28T19:17:28.595Z,11.57
2023-04-28T19:19:56.266Z,11.54
2023-04-28T19:22:33.367Z,11.57
2023-04-28T19:25:00.251Z,11.55
2023-04-28T19:27:34.886Z,11.55
2023-04-28T19:30:02.758Z,11.55
2023-04-28T19:32:30.557Z,11.54
2023-04-28T19:34:57.059Z,11.52
2023-04-28T19:37:23.826Z,11.49
2023-04-28T19:39:51.054Z,11.49
2023-04-28T19:42:18.268Z,11.44
2023-04-28T19:44:46.564Z,11.46
2023-04-28T19:47:13.294Z,11.42
2023-04-28T19:49:41.339Z,11.37
2023-04-28T19:52:10.184Z,11.35
2023-04-28T19:54:38.642Z,11.30
2023-04-28T19:57:05.269Z,11.26
2023-04-28T19:59:31.646Z,11.27
2023-04-28T20:01:58.647Z,11.24
2023-04-28T20:04:25.896Z,11.28
2023-04-28T20:06:52.426Z,11.29
2023-04-28T20:09:18.807Z,11.24
2023-04-28T20:11:45.184Z,11.23
2023-04-28T20:14:11.576Z,11.22
2023-04-28T20:16:37.984Z,11.16
2023-04-28T20:19:04.427Z,11.16
2023-04-28T20:21:31.634Z,11.13
2023-04-28T20:23:58.136Z,11.07
2023-04-28T20:26:24.558Z,11.07
2023-04-28T20:28:50.974Z,11.08
2023-04-28T20:31:17.419Z,10.98
2023-04-28T20:33:43.814Z,10.98
2023-04-28T20:36:10.466Z,10.98
2023-04-28T20:38:37.263Z,10.91
2023-04-28T20:41:04.323Z,10.78
2023-04-28T20:43:30.701Z,10.80
2023-04-28T20:45:57.690Z,10.77
2023-04-28T20:48:24.138Z,10.75
2023-04-28T20:50:53.086Z,10.66
2023-04-28T20:53:19.425Z,10.65
2023-04-28T20:55:45.916Z,10.58
2023-04-28T20:58:13.060Z,10.60
2023-04-28T21:00:40.930Z,10.62
2023-04-28T21:03:07.457Z,10.60
2023-04-28T21:05:34.043Z,10.63
2023-04-28T21:08:00.393Z,10.60
2023-04-28T21:10:26.955Z,10.60
2023-04-28T21:12:53.322Z,10.62
2023-04-28T21:15:19.803Z,10.52
2023-04-28T21:17:46.351Z,10.48
2023-04-28T21:20:13.266Z,10.49
2023-04-28T21:22:39.701Z,10.49
2023-04-28T21:25:08.285Z,10.46
2023-04-28T21:27:34.645Z,10.47
2023-04-28T21:30:01.189Z,10.50
2023-04-28T21:32:27.725Z,10.44
2023-04-28T21:34:54.544Z,10.41
2023-04-28T21:37:20.932Z,10.43
2023-04-28T21:39:47.332Z,10.40
2023-04-28T21:42:13.693Z,10.42
2023-04-28T21:44:40.387Z,10.46
2023-04-28T21:47:06.898Z,10.41
2023-04-28T21:49:33.293Z,10.41
2023-04-28T21:51:59.725Z,10.38
2023-04-28T21:54:26.089Z,10.35
2023-04-28T21:56:52.622Z,10.29
2023-04-28T21:59:19.108Z,10.27
2023-04-28T22:01:45.977Z,10.23
2023-04-28T22:04:12.813Z,10.21
2023-04-28T22:06:39.422Z,10.23
2023-04-28T22:09:06.994Z,10.14
2023-04-28T22:11:33.399Z,10.10
2023-04-28T22:13:59.759Z,10.10
2023-04-28T22:16:26.878Z,10.09
2023-04-28T22:18:53.981Z,10.08
2023-04-28T22:21:20.539Z,10.04
2023-04-28T22:23:47.188Z,10.03
2023-04-28T22:26:14.262Z,10.04
2023-04-28T22:28:41.436Z,9.95
2023-04-28T22:31:08.097Z,9.92
2023-04-28T22:33:34.724Z,9.90
2023-04-28T22:36:01.100Z,9.91
2023-04-28T22:38:27.496Z,9.89
2023-04-28T22:40:54.007Z,9.90
2023-04-28T22:43:20.339Z,9.93
2023-04-28T22:45:46.715Z,9.92
2023-04-28T22:48:13.831Z,9.91
2023-04-28T22:50:41.027Z,9.88
2023-04-28T22:53:07.486Z,9.93
2023-04-28T22:55:34.064Z,9.94
2023-04-28T22:58:00.501Z,9.94
2023-04-28T23:00:26.874Z,9.88
2023-04-28T23:02:53.279Z,9.83
2023-04-28T23:05:19.744Z,9.86
2023-04-28T23:07:46.211Z,9.81
2023-04-28T23:10:14.509Z,9.83
2023-04-28T23:12:41.225Z,9.83
2023-04-28T23:15:07.972Z,9.86
2023-04-28T23:17:34.386Z,9.88
2023-04-28T23:20:00.750Z,9.86
2023-04-28T23:22:27.113Z,9.83
2023-04-28T23:24:53.485Z,9.81
2023-04-28T23:27:19.876Z,9.79
2023-04-28T23:29:46.217Z,9.82
2023-04-28T23:32:12.756Z,9.80
2023-04-28T23:34:41.699Z,9.75
2023-04-28T23:37:08.079Z,9.76
2023-04-28T23:39:34.569Z,9.81
2023-04-28T23:42:02.309Z,9.85
2023-04-28T23:44:28.769Z,9.83
2023-04-28T23:46:56.316Z,9.78
2023-04-28T23:49:23.764Z,9.83
2023-04-28T23:51:50.157Z,9.83
2023-04-28T23:54:16.612Z,9.78
2023-04-28T23:56:42.995Z,9.79
2023-04-28T23:59:09.395Z,9.84
